Time;durP1;ratioP1;P1;durP2;ratioP2;P2;SDS_P1;SDS_P2;PMS_P1;PMS_P2;Temp;Humidity;BMP_temperature;BMP_pressure;BME280_temperature;BME280_humidity;BME280_pressure;Samples;Min_cycle;Max_cycle;Signal;HPM_P1;HPM_P2
2023/06/21 00:01:18;;;;;;;;;;;;;;;19.74;74.25;101259.59;107103;1260;61368;-82
2023/06/21 00:03:44;;;;;;;;;;;;;;;19.77;74.18;101257.63;106991;1262;125721;-82
2023/06/21 00:06:11;;;;;;;;;;;;;;;19.81;74.10;101254.23;107025;1260;61241;-82
2023/06/21 00:08:38;;;;;;;;;;;;;;;19.84;74.09;101257.41;106954;1260;125352;-84
2023/06/21 00:11:04;;;;;;;;;;;;;;;19.87;74.05;101255.78;107100;1262;60826;-82
2023/06/21 00:13:31;;;;;;;;;;;;;;;19.90;74.01;101257.55;108636;1260;60055;-83
2023/06/21 00:15:57;;;;;;;;;;;;;;;19.93;73.97;101254.87;108553;1260;125803;-82
2023/06/21 00:18:24;;;;;;;;;;;;;;;19.95;73.95;101249.52;108714;1260;60622;-82
2023/06/21 00:20:50;;;;;;;;;;;;;;;19.96;73.92;101246.12;108420;1260;126324;-82
2023/06/21 00:23:18;;;;;;;;;;;;;;;19.98;73.86;101245.58;108616;1261;60248;-82
2023/06/21 00:25:44;;;;;;;;;;;;;;;20.00;73.88;101245.57;108702;1260;60215;-82
2023/06/21 00:28:10;;;;;;;;;;;;;;;20.02;73.87;101245.19;108484;1260;125366;-82
2023/06/21 00:30:36;;;;;;;;;;;;;;;20.04;73.90;101242.86;108735;1260;60193;-83
2023/06/21 00:33:03;;;;;;;;;;;;;;;20.05;73.86;101234.67;108594;1260;125229;-82
2023/06/21 00:35:29;;;;;;;;;;;;;;;20.08;73.86;101231.98;108569;1260;60231;-82
2023/06/21 00:37:55;;;;;;;;;;;;;;;20.10;73.80;101225.72;108462;1262;125560;-82
2023/06/21 00:40:25;;;;;;;;;;;;;;;20.11;73.69;101226.44;108574;1261;60013;-82
2023/06/21 00:42:54;;;;;;;;;;;;;;;20.13;73.68;101228.38;108537;1262;75980;-82
2023/06/21 00:45:20;;;;;;;;;;;;;;;20.18;73.68;101229.95;108611;1260;125077;-82
2023/06/21 00:47:47;;;;;;;;;;;;;;;20.20;73.51;101227.42;108483;1264;60633;-82
2023/06/21 00:50:13;;;;;;;;;;;;;;;20.22;73.39;101224.56;108330;1260;125803;-82
2023/06/21 00:52:39;;;;;;;;;;;;;;;20.25;73.35;101222.06;108511;1260;60334;-83
2023/06/21 00:55:08;;;;;;;;;;;;;;;20.27;73.24;101224.71;108543;1261;59875;-82
2023/06/21 00:57:35;;;;;;;;;;;;;;;20.28;73.14;101224.52;108374;1261;125719;-82
2023/06/21 01:00:01;;;;;;;;;;;;;;;20.29;73.05;101226.13;108708;1260;71477;-82
2023/06/21 01:02:28;;;;;;;;;;;;;;;20.30;73.08;101226.84;108450;1261;126257;-82
2023/06/21 01:04:54;;;;;;;;;;;;;;;20.29;73.06;101229.14;108556;1262;60024;-81
2023/06/21 01:07:20;;;;;;;;;;;;;;;20.29;73.09;101228.09;108693;1261;60191;-83
2023/06/21 01:09:52;;;;;;;;;;;;;;;20.28;73.15;101228.98;108064;1261;125412;-83
2023/06/21 01:12:21;;;;;;;;;;;;;;;20.28;73.14;101226.48;107329;1261;72818;-82
2023/06/21 01:14:56;;;;;;;;;;;;;;;20.28;73.13;101230.41;107391;1262;126005;-82
2023/06/21 01:17:22;;;;;;;;;;;;;;;20.28;73.18;101229.34;107501;1262;62040;-82
2023/06/21 01:19:51;;;;;;;;;;;;;;;20.27;73.11;101226.68;107276;1262;125338;-83
2023/06/21 01:22:32;;;;;;;;;;;;;;;20.26;72.92;101223.29;107275;1261;65787;-83
2023/06/21 01:25:22;;;;;;;;;;;;;;;20.24;73.00;101222.42;107464;1261;73029;-83
2023/06/21 01:28:17;;;;;;;;;;;;;;;20.25;72.97;101224.18;107580;1261;126401;-82
2023/06/21 01:30:45;;;;;;;;;;;;;;;20.27;72.87;101219.73;107058;1262;61302;-82
2023/06/21 01:33:12;;;;;;;;;;;;;;;20.27;72.71;101211.52;107354;1262;125710;-82
2023/06/21 01:35:39;;;;;;;;;;;;;;;20.26;72.56;101209.76;107414;1261;67043;-82
2023/06/21 01:38:06;;;;;;;;;;;;;;;20.26;72.44;101204.23;107373;1261;125241;-82
2023/06/21 01:40:36;;;;;;;;;;;;;;;20.26;72.39;101207.80;107316;1265;62047;-82
2023/06/21 01:43:02;;;;;;;;;;;;;;;20.26;72.39;101199.95;107718;1261;61880;-81
2023/06/21 01:45:28;;;;;;;;;;;;;;;20.26;72.42;101201.91;107719;1264;125029;-81
2023/06/21 01:47:55;;;;;;;;;;;;;;;20.26;72.54;101200.50;107501;1262;60407;-82
2023/06/21 01:50:21;;;;;;;;;;;;;;;20.26;72.50;101204.40;107456;1265;125517;-82
2023/06/21 01:52:48;;;;;;;;;;;;;;;20.26;72.51;101197.10;107372;1262;60232;-81
2023/06/21 01:55:14;;;;;;;;;;;;;;;20.25;72.55;101198.35;107522;1262;62647;-82
2023/06/21 01:57:40;;;;;;;;;;;;;;;20.21;72.53;101205.70;107378;1262;124925;-83
2023/06/21 02:00:26;;;;;;;;;;;;;;;20.18;72.55;101213.20;107540;1262;62179;-82
2023/06/21 02:02:56;;;;;;;;;;;;;;;20.15;72.67;101211.98;107026;1262;125339;-82
2023/06/21 02:05:22;;;;;;;;;;;;;;;20.12;72.78;101212.16;107257;1261;60862;-82
2023/06/21 02:07:48;;;;;;;;;;;;;;;20.08;72.80;101218.27;107069;1262;125458;-81
2023/06/21 02:10:15;;;;;;;;;;;;;;;20.06;72.91;101221.48;107420;1262;62025;-81
2023/06/21 02:12:41;;;;;;;;;;;;;;;20.04;73.01;101223.45;107420;1267;61805;-82
2023/06/21 02:15:08;;;;;;;;;;;;;;;20.05;72.99;101223.27;107478;1260;125234;-82
2023/06/21 02:17:36;;;;;;;;;;;;;;;20.06;73.03;101224.86;107101;1265;61949;-81
2023/06/21 02:20:08;;;;;;;;;;;;;;;20.07;73.06;101222.54;107073;1266;125880;-81
2023/06/21 02:22:34;;;;;;;;;;;;;;;20.07;73.05;101222.35;107375;1261;74057;-82
2023/06/21 02:25:00;;;;;;;;;;;;;;;20.08;73.09;101221.45;107543;1262;62217;-82
2023/06/21 02:27:27;;;;;;;;;;;;;;;20.08;73.11;101222.16;107260;1263;125160;-82
2023/06/21 02:29:54;;;;;;;;;;;;;;;20.09;73.12;101222.89;108665;1262;60218;-82
2023/06/21 02:32:22;;;;;;;;;;;;;;;20.11;73.28;101223.05;108515;1262;126433;-82
2023/06/21 02:34:49;;;;;;;;;;;;;;;20.13;73.15;101216.44;108766;1262;74484;-83
2023/06/21 02:37:16;;;;;;;;;;;;;;;20.15;73.17;101212.69;108626;1262;60265;-84
2023/06/21 02:39:42;;;;;;;;;;;;;;;20.16;73.13;101218.20;108668;1260;125126;-83
2023/06/21 02:42:08;;;;;;;;;;;;;;;20.17;73.09;101216.77;107937;1261;61928;-83
2023/06/21 02:44:35;;;;;;;;;;;;;;;20.19;73.03;101213.17;107184;1262;125464;-83
2023/06/21 02:47:01;;;;;;;;;;;;;;;20.20;73.06;101212.47;107537;1265;62060;-83
2023/06/21 02:49:28;;;;;;;;;;;;;;;20.20;73.08;101209.63;107501;1262;62136;-83
2023/06/21 02:51:55;;;;;;;;;;;;;;;20.20;73.05;101209.44;107418;1262;125646;-83
2023/06/21 02:54:21;;;;;;;;;;;;;;;20.22;73.17;101211.74;107340;1266;62200;-83
2023/06/21 02:56:47;;;;;;;;;;;;;;;20.25;73.10;101212.08;107134;1261;125876;-83
2023/06/21 02:59:14;;;;;;;;;;;;;;;20.27;72.90;101210.10;108642;1260;60287;-83
2023/06/21 03:01:40;;;;;;;;;;;;;;;20.31;72.91;101210.27;108670;1261;60229;-83
2023/06/21 03:04:06;;;;;;;;;;;;;;;20.36;72.77;101204.52;108595;1260;124968;-83
2023/06/21 03:06:34;;;;;;;;;;;;;;;20.41;72.79;101206.25;108717;1260;60668;-83
2023/06/21 03:09:01;;;;;;;;;;;;;;;20.44;72.55;101201.94;108558;1262;125480;-83
2023/06/21 03:11:29;;;;;;;;;;;;;;;20.49;72.38;101207.96;108733;1262;74267;-83
2023/06/21 03:13:55;;;;;;;;;;;;;;;20.54;72.35;101206.48;108521;1261;125397;-83
2023/06/21 03:16:22;;;;;;;;;;;;;;;20.58;72.20;101202.70;108740;1260;60101;-83
2023/06/21 03:18:49;;;;;;;;;;;;;;;20.62;71.99;101206.26;108774;1262;59799;-83
2023/06/21 03:21:15;;;;;;;;;;;;;;;20.64;71.93;101202.51;108603;1262;125099;-82
2023/06/21 03:23:42;;;;;;;;;;;;;;;20.67;71.75;101206.75;108561;1262;60132;-82
2023/06/21 03:26:08;;;;;;;;;;;;;;;20.72;71.78;101202.08;108573;1262;125743;-82
2023/06/21 03:28:34;;;;;;;;;;;;;;;20.75;71.70;101199.38;107751;1264;60454;-82
2023/06/21 03:31:00;;;;;;;;;;;;;;;20.77;71.72;101196.86;107264;1261;60737;-83
2023/06/21 03:33:33;;;;;;;;;;;;;;;20.83;71.60;101191.27;107017;1261;124439;-83
2023/06/21 03:36:03;;;;;;;;;;;;;;;20.88;71.48;101192.82;106771;1267;75483;-83
2023/06/21 03:38:42;;;;;;;;;;;;;;;20.96;71.44;101192.91;106751;1260;124784;-83
2023/06/21 03:41:08;;;;;;;;;;;;;;;21.04;71.35;101189.96;106872;1261;73458;-83
2023/06/21 03:43:34;;;;;;;;;;;;;;;21.16;71.20;101192.69;106909;1264;60779;-82
2023/06/21 03:46:02;;;;;;;;;;;;;;;21.32;71.10;101193.57;107586;1261;125253;-82
2023/06/21 03:48:30;;;;;;;;;;;;;;;21.55;70.99;101192.05;107277;1261;75366;-83
2023/06/21 03:50:56;;;;;;;;;;;;;;;21.90;70.97;101192.27;107290;1263;124421;-83
2023/06/21 03:53:22;;;;;;;;;;;;;;;22.53;71.06;101196.30;107171;1260;62135;-84
2023/06/21 03:55:49;;;;;;;;;;;;;;;23.43;70.60;101192.80;106781;1262;124994;-83
2023/06/21 03:58:15;;;;;;;;;;;;;;;24.41;69.75;101188.73;107050;1262;60885;-83
2023/06/21 04:00:43;;;;;;;;;;;;;;;25.50;68.45;101185.42;107227;1260;61447;-83
2023/06/21 04:03:09;;;;;;;;;;;;;;;26.35;66.61;101188.34;107190;1262;125660;-82
2023/06/21 04:05:36;;;;;;;;;;;;;;;26.90;65.10;101192.75;107185;1262;60445;-82
2023/06/21 04:08:02;;;;;;;;;;;;;;;27.16;63.68;101200.10;107280;1261;125787;-82
2023/06/21 04:10:28;;;;;;;;;;;;;;;27.94;63.52;101193.69;107180;1263;62734;-82
2023/06/21 04:12:54;;;;;;;;;;;;;;;28.64;61.43;101198.94;107115;1263;60448;-81
2023/06/21 04:15:21;;;;;;;;;;;;;;;28.83;59.85;101201.56;107314;1262;124813;-80
2023/06/21 04:17:49;;;;;;;;;;;;;;;28.56;58.20;101194.23;107428;1261;60403;-82
2023/06/21 04:20:15;;;;;;;;;;;;;;;27.83;57.32;101185.46;107369;1261;124634;-83
2023/06/21 04:22:42;;;;;;;;;;;;;;;27.07;57.01;101187.11;107635;1261;61378;-81
2023/06/21 04:25:09;;;;;;;;;;;;;;;26.33;57.15;101183.56;107532;1260;73278;-82
2023/06/21 04:27:35;;;;;;;;;;;;;;;25.82;57.43;101182.84;107200;1263;124865;-81
2023/06/21 04:30:01;;;;;;;;;;;;;;;25.43;57.83;101179.38;107200;1263;61407;-81
2023/06/21 04:32:31;;;;;;;;;;;;;;;25.06;57.99;101186.88;107303;1260;125206;-81
2023/06/21 04:35:01;;;;;;;;;;;;;;;24.78;58.29;101188.17;107197;1260;60385;-80
2023/06/21 04:37:28;;;;;;;;;;;;;;;24.61;58.42;101191.51;107329;1262;74088;-81
2023/06/21 04:39:55;;;;;;;;;;;;;;;24.45;58.77;101195.46;107324;1263;125176;-81
2023/06/21 04:42:21;;;;;;;;;;;;;;;24.34;58.96;101196.48;107490;1262;62023;-83
2023/06/21 04:44:49;;;;;;;;;;;;;;;24.22;58.96;101193.18;107328;1264;124858;-82
2023/06/21 04:47:16;;;;;;;;;;;;;;;24.06;59.03;101196.27;107470;1266;62020;-83
2023/06/21 04:49:43;;;;;;;;;;;;;;;23.98;59.35;101199.31;107285;1260;73195;-85
2023/06/21 04:52:12;;;;;;;;;;;;;;;23.96;59.45;101199.54;107206;1261;125291;-84
2023/06/21 04:54:40;;;;;;;;;;;;;;;23.96;59.58;101194.51;107505;1260;73140;-83
2023/06/21 04:57:12;;;;;;;;;;;;;;;23.95;59.35;101186.30;107261;1262;125525;-79
2023/06/21 04:59:46;;;;;;;;;;;;;;;23.97;59.63;101185.89;107380;1262;60388;-85
2023/06/21 05:02:12;;;;;;;;;;;;;;;24.04;59.70;101183.21;106899;1261;124692;-83
2023/06/21 05:04:39;;;;;;;;;;;;;;;24.10;59.66;101174.12;107191;1263;62066;-85
2023/06/21 05:07:05;;;;;;;;;;;;;;;24.10;59.35;101166.05;107393;1263;62206;-85
2023/06/21 05:09:32;;;;;;;;;;;;;;;24.06;59.45;101162.02;107223;1260;124447;-84
2023/06/21 05:11:58;;;;;;;;;;;;;;;24.08;59.49;101166.27;107110;1263;62089;-85
2023/06/21 05:14:32;;;;;;;;;;;;;;;24.13;59.80;101168.13;107083;1263;124860;-83
2023/06/21 05:16:58;;;;;;;;;;;;;;;24.19;59.68;101167.80;107429;1261;65350;-87
2023/06/21 05:19:24;;;;;;;;;;;;;;;24.34;59.72;101159.72;107063;1262;62651;-83
2023/06/21 05:21:51;;;;;;;;;;;;;;;25.16;60.91;101155.31;106923;1262;124453;-85
2023/06/21 05:24:19;;;;;;;;;;;;;;;26.50;59.63;101154.35;107105;1261;62203;-83
2023/06/21 05:26:45;;;;;;;;;;;;;;;27.07;58.30;101154.88;107398;1265;124459;-83
2023/06/21 05:29:11;;;;;;;;;;;;;;;28.84;59.11;101152.86;107781;1260;61370;-82
2023/06/21 05:31:44;;;;;;;;;;;;;;;31.15;57.41;101153.17;107430;1263;62316;-85
2023/06/21 05:34:12;;;;;;;;;;;;;;;32.79;53.62;101151.80;107080;1260;124331;-82
2023/06/21 05:36:39;;;;;;;;;;;;;;;32.84;50.99;101147.17;107426;1262;62011;-81
2023/06/21 05:39:05;;;;;;;;;;;;;;;33.09;50.84;101148.33;107180;1261;124936;-81
2023/06/21 05:41:33;;;;;;;;;;;;;;;34.20;50.09;101155.13;107549;1261;60221;-82
2023/06/21 05:44:06;;;;;;;;;;;;;;;34.63;47.76;101158.60;107218;1261;125200;-83
2023/06/21 05:46:34;;;;;;;;;;;;;;;34.06;46.42;101156.59;107380;1262;62147;-83
2023/06/21 05:49:01;;;;;;;;;;;;;;;33.33;45.97;101155.89;107270;1260;62077;-84
2023/06/21 05:51:27;;;;;;;;;;;;;;;32.53;45.74;101157.77;107038;1260;125210;-84
2023/06/21 05:53:56;;;;;;;;;;;;;;;31.78;45.81;101158.17;107477;1261;62114;-83
2023/06/21 05:56:26;;;;;;;;;;;;;;;31.13;46.21;101151.44;108434;1260;124972;-83
2023/06/21 05:58:54;;;;;;;;;;;;;;;30.57;46.54;101146.08;108782;1261;59842;-83
2023/06/21 06:01:20;;;;;;;;;;;;;;;30.18;46.97;101145.31;108623;1260;60168;-83
2023/06/21 06:03:46;;;;;;;;;;;;;;;29.88;47.08;101137.07;108592;1261;125417;-83
2023/06/21 06:06:13;;;;;;;;;;;;;;;29.55;47.54;101133.55;108691;1260;60195;-83
2023/06/21 06:08:39;;;;;;;;;;;;;;;29.41;47.94;101134.98;108512;1266;124997;-83
2023/06/21 06:11:07;;;;;;;;;;;;;;;29.23;47.90;101129.30;108657;1261;59870;-83
2023/06/21 06:13:33;;;;;;;;;;;;;;;28.96;48.00;101135.92;107631;1261;62855;-82
2023/06/21 06:16:00;;;;;;;;;;;;;;;28.67;48.40;101134.01;107236;1264;124440;-82
2023/06/21 06:18:27;;;;;;;;;;;;;;;28.57;48.84;101136.23;107515;1261;61378;-83
2023/06/21 06:20:53;;;;;;;;;;;;;;;28.47;48.96;101130.54;107488;1265;124930;-83
2023/06/21 06:23:19;;;;;;;;;;;;;;;28.33;49.19;101133.65;107620;1266;60497;-83
2023/06/21 06:25:46;;;;;;;;;;;;;;;28.17;49.27;101131.42;107783;1262;61804;-83
2023/06/21 06:28:12;;;;;;;;;;;;;;;28.08;49.48;101131.27;107244;1268;125349;-83
2023/06/21 06:30:38;;;;;;;;;;;;;;;28.03;49.87;101126.09;108505;1265;60327;-83
2023/06/21 06:33:06;;;;;;;;;;;;;;;28.00;49.97;101127.82;108492;1262;124413;-83
2023/06/21 06:35:33;;;;;;;;;;;;;;;27.99;50.06;101128.95;108760;1261;59810;-83
2023/06/21 06:37:59;;;;;;;;;;;;;;;28.03;50.10;101123.36;108482;1260;125176;-83
2023/06/21 06:40:25;;;;;;;;;;;;;;;28.05;50.21;101119.47;108687;1262;60119;-83
2023/06/21 06:42:52;;;;;;;;;;;;;;;28.03;50.19;101118.31;108549;1260;60180;-83
2023/06/21 06:45:18;;;;;;;;;;;;;;;27.99;50.04;101113.08;108441;1265;124438;-83
2023/06/21 06:47:44;;;;;;;;;;;;;;;27.92;50.03;101114.06;108744;1261;59789;-83
2023/06/21 06:50:12;;;;;;;;;;;;;;;27.94;50.23;101113.28;108701;1261;125049;-83
2023/06/21 06:52:39;;;;;;;;;;;;;;;28.01;50.41;101104.50;107944;1265;61967;-83
2023/06/21 06:55:05;;;;;;;;;;;;;;;28.03;50.26;101107.30;107704;1266;67605;-83
2023/06/21 06:57:32;;;;;;;;;;;;;;;28.04;50.30;101108.71;107375;1267;125050;-83
2023/06/21 06:59:59;;;;;;;;;;;;;;;28.04;50.25;101102.39;107461;1263;60422;-83
2023/06/21 07:02:26;;;;;;;;;;;;;;;28.01;50.12;101100.55;107314;1260;126006;-82
2023/06/21 07:04:52;;;;;;;;;;;;;;;27.93;50.03;101101.07;107628;1260;67150;-83
2023/06/21 07:07:18;;;;;;;;;;;;;;;27.85;50.26;101097.94;107340;1260;60465;-83
2023/06/21 07:09:45;;;;;;;;;;;;;;;27.83;50.53;101097.47;107047;1260;124729;-83
2023/06/21 07:12:11;;;;;;;;;;;;;;;27.82;50.64;101099.30;107161;1267;61326;-83
2023/06/21 07:14:37;;;;;;;;;;;;;;;27.84;50.82;101098.00;107693;1265;124893;-83
2023/06/21 07:17:04;;;;;;;;;;;;;;;27.83;50.84;101096.23;107714;1266;62221;-84
2023/06/21 07:19:31;;;;;;;;;;;;;;;27.85;51.07;101101.00;107409;1267;62127;-84
2023/06/21 07:22:00;;;;;;;;;;;;;;;27.87;50.98;101102.52;107537;1264;124532;-84
2023/06/21 07:24:27;;;;;;;;;;;;;;;27.94;51.13;101106.78;107326;1264;60566;-85
2023/06/21 07:26:53;;;;;;;;;;;;;;;28.03;51.16;101104.77;107248;1260;124737;-83
2023/06/21 07:29:20;;;;;;;;;;;;;;;28.11;51.16;101109.70;107786;1260;61877;-83
2023/06/21 07:31:48;;;;;;;;;;;;;;;28.18;51.21;101109.38;107629;1262;65533;-83
2023/06/21 07:34:14;;;;;;;;;;;;;;;28.24;51.00;101105.16;107379;1261;72690;-83
2023/06/21 07:36:42;;;;;;;;;;;;;;;28.29;51.13;101099.69;107034;1266;62223;-83
2023/06/21 07:39:08;;;;;;;;;;;;;;;28.34;50.82;101101.14;107336;1260;125153;-83
2023/06/21 07:41:34;;;;;;;;;;;;;;;28.36;50.76;101099.77;107262;1264;60210;-83
2023/06/21 07:44:00;;;;;;;;;;;;;;;28.34;50.58;101096.07;107152;1261;124637;-82
2023/06/21 07:46:28;;;;;;;;;;;;;;;28.33;50.48;101094.29;106962;1261;60538;-81
2023/06/21 07:48:55;;;;;;;;;;;;;;;28.29;50.35;101090.66;107131;1266;62081;-82
2023/06/21 07:51:21;;;;;;;;;;;;;;;28.28;50.33;101091.98;107309;1260;125031;-83
2023/06/21 07:53:48;;;;;;;;;;;;;;;28.29;50.36;101083.27;107080;1267;63048;-83
2023/06/21 07:56:14;;;;;;;;;;;;;;;28.34;50.33;101080.34;106984;1265;125472;-82
2023/06/21 07:58:42;;;;;;;;;;;;;;;28.43;50.41;101077.61;107149;1260;62868;-83
2023/06/21 08:01:14;;;;;;;;;;;;;;;28.52;50.41;101072.38;107132;1266;62086;-83
2023/06/21 08:03:41;;;;;;;;;;;;;;;28.55;50.22;101076.77;107025;1264;124500;-83
2023/06/21 08:06:07;;;;;;;;;;;;;;;28.56;50.00;101075.25;107382;1261;61962;-83
2023/06/21 08:08:34;;;;;;;;;;;;;;;28.57;49.88;101073.42;107267;1261;125007;-82
2023/06/21 08:11:01;;;;;;;;;;;;;;;28.61;49.99;101078.29;107294;1264;61171;-82
2023/06/21 08:13:28;;;;;;;;;;;;;;;28.68;49.99;101079.59;107169;1264;61097;-82
2023/06/21 08:15:54;;;;;;;;;;;;;;;28.77;50.11;101076.85;107252;1260;125669;-82
2023/06/21 08:18:21;;;;;;;;;;;;;;;28.87;49.98;101079.10;107221;1261;62130;-82
2023/06/21 08:20:48;;;;;;;;;;;;;;;28.95;49.89;101081.63;106954;1261;124466;-82
2023/06/21 08:23:14;;;;;;;;;;;;;;;29.02;49.65;101084.38;106932;1261;61844;-82
2023/06/21 08:25:40;;;;;;;;;;;;;;;29.15;49.65;101087.20;107523;1262;60164;-83
2023/06/21 08:28:06;;;;;;;;;;;;;;;29.26;49.37;101088.50;107468;1261;125039;-83
2023/06/21 08:30:33;;;;;;;;;;;;;;;29.36;49.41;101097.59;107181;1263;60447;-82
2023/06/21 08:32:59;;;;;;;;;;;;;;;29.47;49.19;101094.55;106976;1265;125173;-82
2023/06/21 08:35:25;;;;;;;;;;;;;;;29.54;49.02;101088.75;107180;1261;61525;-85
2023/06/21 08:37:55;;;;;;;;;;;;;;;29.66;49.01;101092.35;106970;1260;125417;-83
2023/06/21 08:40:26;;;;;;;;;;;;;;;29.75;48.81;101089.75;107516;1264;61865;-84
2023/06/21 08:42:52;;;;;;;;;;;;;;;29.78;48.74;101092.48;107639;1260;67389;-84
2023/06/21 08:45:20;;;;;;;;;;;;;;;29.86;48.73;101085.77;107590;1263;125132;-84
2023/06/21 08:47:48;;;;;;;;;;;;;;;30.03;48.69;101088.73;107428;1261;63021;-84
2023/06/21 08:50:17;;;;;;;;;;;;;;;30.21;48.51;101091.96;107241;1260;124864;-82
2023/06/21 08:52:45;;;;;;;;;;;;;;;30.32;48.28;101086.32;107180;1260;60247;-83
2023/06/21 08:55:12;;;;;;;;;;;;;;;30.48;48.29;101092.40;107356;1261;66890;-82
2023/06/21 08:57:39;;;;;;;;;;;;;;;30.63;48.12;101097.54;107243;1260;124686;-83
2023/06/21 09:00:06;;;;;;;;;;;;;;;30.86;47.97;101095.80;106875;1266;276409;-83
2023/06/21 09:02:39;;;;;;;;;;;;;;;31.11;47.62;101097.35;106952;1261;124818;-82
2023/06/21 09:05:25;;;;;;;;;;;;;;;31.35;47.46;101102.15;107131;1260;62131;-83
2023/06/21 09:07:54;;;;;;;;;;;;;;;31.62;47.29;101108.27;107327;1260;124644;-85
2023/06/21 09:10:21;;;;;;;;;;;;;;;31.88;47.08;101106.94;107368;1263;63172;-83
2023/06/21 09:12:49;;;;;;;;;;;;;;;32.07;46.64;101107.14;107415;1260;64533;-85
2023/06/21 09:15:15;;;;;;;;;;;;;;;32.15;46.21;101104.98;107091;1264;124556;-84
2023/06/21 09:17:42;;;;;;;;;;;;;;;32.24;45.95;101105.19;107144;1261;62221;-83
2023/06/21 09:20:08;;;;;;;;;;;;;;;32.39;45.96;101107.75;107117;1260;124615;-83
2023/06/21 09:22:35;;;;;;;;;;;;;;;32.57;45.76;101108.48;107395;1260;63203;-83
2023/06/21 09:25:01;;;;;;;;;;;;;;;32.71;45.49;101113.04;107339;1260;62729;-83
2023/06/21 09:27:41;;;;;;;;;;;;;;;32.79;45.06;101116.98;107038;1261;124689;-83
2023/06/21 09:30:09;;;;;;;;;;;;;;;32.70;44.92;101121.10;107138;1260;61995;-82
2023/06/21 09:32:36;;;;;;;;;;;;;;;32.62;44.91;101122.33;107260;1260;125230;-83
2023/06/21 09:35:02;;;;;;;;;;;;;;;32.56;44.94;101120.69;107210;1260;61679;-83
2023/06/21 09:37:36;;;;;;;;;;;;;;;32.54;45.14;101121.91;107004;1261;62096;-83
2023/06/21 09:40:03;;;;;;;;;;;;;;;32.56;45.19;101126.88;106937;1261;125131;-83
2023/06/21 09:42:29;;;;;;;;;;;;;;;32.62;45.23;101124.70;107178;1260;62244;-83
2023/06/21 09:45:01;;;;;;;;;;;;;;;32.77;45.26;101121.07;108460;1267;124470;-84
2023/06/21 09:47:31;;;;;;;;;;;;;;;32.88;44.89;101102.92;108656;1263;60072;-84
2023/06/21 09:49:57;;;;;;;;;;;;;;;32.91;44.69;101094.92;107385;1260;125233;-84
2023/06/21 09:52:26;;;;;;;;;;;;;;;32.92;44.50;101079.55;107069;1260;62936;-85
2023/06/21 09:54:55;;;;;;;;;;;;;;;32.93;44.12;101078.24;107195;1260;60059;-83
2023/06/21 09:57:26;;;;;;;;;;;;;;;32.87;43.62;101079.54;107169;1260;125027;-85
2023/06/21 09:59:52;;;;;;;;;;;;;;;32.74;43.26;101076.55;107379;1260;62051;-82
2023/06/21 10:02:18;;;;;;;;;;;;;;;32.60;43.22;101080.48;107130;1260;125906;-84
2023/06/21 10:04:45;;;;;;;;;;;;;;;32.46;42.96;101082.07;107223;1260;61886;-83
2023/06/21 10:07:14;;;;;;;;;;;;;;;32.36;42.68;101077.21;107266;1260;62041;-82
2023/06/21 10:09:41;;;;;;;;;;;;;;;32.24;42.54;101076.86;107127;1260;124449;-82
2023/06/21 10:12:13;;;;;;;;;;;;;;;32.14;42.36;101075.48;107266;1261;60340;-83
2023/06/21 10:14:40;;;;;;;;;;;;;;;32.01;42.09;101078.80;106937;1260;124965;-82
2023/06/21 10:17:07;;;;;;;;;;;;;;;31.84;41.90;101080.34;107292;1260;60907;-83
2023/06/21 10:19:35;;;;;;;;;;;;;;;31.67;41.83;101084.23;107326;1260;61956;-83
2023/06/21 10:22:04;;;;;;;;;;;;;;;31.47;42.03;101085.00;107095;1260;124738;-82
2023/06/21 10:24:32;;;;;;;;;;;;;;;31.30;42.09;101085.20;107316;1260;60031;-83
2023/06/21 10:26:59;;;;;;;;;;;;;;;31.17;42.28;101085.21;106988;1261;124665;-83
2023/06/21 10:29:25;;;;;;;;;;;;;;;31.07;42.55;101077.47;107002;1260;60316;-83
2023/06/21 10:31:51;;;;;;;;;;;;;;;31.08;42.80;101079.77;107029;1260;125395;-82
2023/06/21 10:34:19;;;;;;;;;;;;;;;31.17;42.98;101081.25;107685;1260;61638;-82
2023/06/21 10:36:48;;;;;;;;;;;;;;;31.31;43.02;101082.62;108507;1265;60379;-83
2023/06/21 10:39:14;;;;;;;;;;;;;;;31.49;43.13;101082.32;108643;1260;124642;-83
2023/06/21 10:41:40;;;;;;;;;;;;;;;31.77;43.06;101080.02;108740;1260;60163;-83
2023/06/21 10:44:07;;;;;;;;;;;;;;;32.08;42.74;101083.83;108630;1260;125311;-83
2023/06/21 10:46:34;;;;;;;;;;;;;;;32.29;42.21;101082.78;108595;1260;60118;-83
2023/06/21 10:49:00;;;;;;;;;;;;;;;32.46;42.04;101078.08;108658;1260;60797;-83
2023/06/21 10:51:28;;;;;;;;;;;;;;;32.73;41.94;101074.96;106889;1260;124989;-83
2023/06/21 10:53:54;;;;;;;;;;;;;;;33.02;41.62;101078.42;107443;1260;61161;-83
2023/06/21 10:56:20;;;;;;;;;;;;;;;33.25;41.40;101080.03;107364;1264;124746;-83
2023/06/21 10:58:46;;;;;;;;;;;;;;;33.44;41.05;101077.91;108548;1260;61782;-83
2023/06/21 11:01:20;;;;;;;;;;;;;;;33.63;40.91;101082.63;108261;1260;62185;-83
2023/06/21 11:03:48;;;;;;;;;;;;;;;33.87;40.60;101078.30;106942;1260;124792;-83
2023/06/21 11:06:21;;;;;;;;;;;;;;;34.14;40.57;101081.40;106993;1260;61355;-83
2023/06/21 11:08:47;;;;;;;;;;;;;;;34.39;40.16;101080.94;106933;1261;124742;-83
2023/06/21 11:11:32;;;;;;;;;;;;;;;34.59;40.04;101075.52;107100;1260;60597;-83
2023/06/21 11:14:05;;;;;;;;;;;;;;;34.81;39.85;101070.91;107062;1260;124721;-83
2023/06/21 11:16:34;;;;;;;;;;;;;;;35.04;39.72;101069.27;107250;1260;64234;-83
2023/06/21 11:19:04;;;;;;;;;;;;;;;35.17;39.27;101075.22;107414;1260;61165;-83
2023/06/21 11:21:40;;;;;;;;;;;;;;;35.20;39.32;101069.17;107305;1260;123575;-83
2023/06/21 11:24:09;;;;;;;;;;;;;;;35.15;38.88;101072.87;107148;1260;66866;-83
2023/06/21 11:26:51;;;;;;;;;;;;;;;34.99;38.81;101071.27;107236;1260;125102;-83
2023/06/21 11:29:19;;;;;;;;;;;;;;;34.86;39.01;101066.89;107328;1260;64103;-82
2023/06/21 11:31:47;;;;;;;;;;;;;;;34.82;38.99;101071.70;107284;1261;62074;-83
2023/06/21 11:34:23;;;;;;;;;;;;;;;34.79;39.03;101072.30;107499;1260;62081;-85
2023/06/21 11:36:49;;;;;;;;;;;;;;;34.75;39.03;101064.08;107214;1260;65267;-85
2023/06/21 11:39:15;;;;;;;;;;;;;;;34.66;38.87;101061.05;107225;1260;124852;-85
2023/06/21 11:41:47;;;;;;;;;;;;;;;34.57;38.82;101060.00;107324;1261;61313;-82
2023/06/21 11:44:13;;;;;;;;;;;;;;;34.46;38.88;101063.54;107467;1260;125294;-85
2023/06/21 11:46:40;;;;;;;;;;;;;;;34.38;38.75;101072.98;107613;1261;60495;-82
2023/06/21 11:49:06;;;;;;;;;;;;;;;34.27;38.43;101072.73;107276;1261;66942;-83
2023/06/21 11:51:32;;;;;;;;;;;;;;;34.10;38.28;101068.35;107037;1260;125168;-84
2023/06/21 11:53:59;;;;;;;;;;;;;;;33.93;38.35;101071.20;107381;1260;61207;-84
2023/06/21 11:56:31;;;;;;;;;;;;;;;33.88;38.53;101076.09;107419;1260;125337;-83
2023/06/21 11:58:58;;;;;;;;;;;;;;;33.85;38.54;101075.75;107326;1260;62193;-82
2023/06/21 12:01:25;;;;;;;;;;;;;;;33.81;38.34;101076.33;107265;1260;66917;-85
2023/06/21 12:04:00;;;;;;;;;;;;;;;33.78;38.37;101073.27;107092;1260;125572;-85
2023/06/21 12:06:29;;;;;;;;;;;;;;;33.82;38.59;101068.10;107168;1260;64016;-84
2023/06/21 12:08:57;;;;;;;;;;;;;;;33.87;38.55;101069.75;106925;1260;125054;-84
2023/06/21 12:11:26;;;;;;;;;;;;;;;33.97;38.67;101066.70;107304;1260;62449;-84
2023/06/21 12:13:53;;;;;;;;;;;;;;;34.15;38.51;101067.86;107110;1261;125308;-84
2023/06/21 12:16:20;;;;;;;;;;;;;;;34.29;38.35;101068.91;107245;1260;62160;-83
2023/06/21 12:18:47;;;;;;;;;;;;;;;34.40;38.46;101065.92;107228;1260;64185;-83
2023/06/21 12:21:13;;;;;;;;;;;;;;;34.53;38.33;101064.81;107165;1260;125106;-83
2023/06/21 12:23:39;;;;;;;;;;;;;;;34.73;38.42;101062.59;107319;1260;60521;-84
2023/06/21 12:26:06;;;;;;;;;;;;;;;34.97;38.26;101060.66;107002;1260;124894;-83